Aviation Digital Data Service (ADDS)

Output produced by METARs form (1427 UTC 30 June 2015)
found at http://aviationweather.gov/adds/metars/
 
METAR text: KBFM 301353Z 26010G17KT 10SM SCT100 29/23 A3010 RMK AO2 SLP191 T02890228
Conditions at: KBFM (MOBILE/BROOKLEY , AL, US) observed 1353 UTC 30 June 2015
Temperature: 28.9°C (84°F)
Dewpoint: 22.8°C (73°F) [RH = 70%]
Pressure (altimeter): 30.10 inches Hg (1019.4 mb)
[Sea-level pressure: 1019.1 mb]
Winds: from the W (260 degrees) at 12 MPH (10 knots; 5.2 m/s)
gusting to 20 MPH (17 knots; 8.8 m/s)
Visibility: 10 or more miles (16+ km)
Ceiling: at least 12,000 feet AGL
Clouds: scattered clouds at 10000 feet AGL
Weather: no significant weather observed at this time